Terminal Aerodrome Forecast
Issued by NWS

Home | Current Version | Previous Version | Text Only | Print | Product List | Glossary On
Versions: 1 2 3 4 5 6 7 8 9 10 11 12 13 14 15 16 17 18
000
FTUS45 KBOU 222325
TAFBJC
TAF
KBJC 222325Z 2300/2324 12007KT P6SM SCT120 BKN200
     FM230200 25007KT P6SM SCT100 BKN150
     FM231300 24012KT P6SM BKN080 OVC120
     FM231900 24012G22KT P6SM VCSH BKN080 OVC120=

USA.gov is the U.S. government's official web portal to all federal, state and local government web resources and services.